Time;durP1;ratioP1;P1;durP2;ratioP2;P2;SDS_P1;SDS_P2;PMS_P1;PMS_P2;Temp;Humidity;BMP_temperature;BMP_pressure;BME280_temperature;BME280_humidity;BME280_pressure;Samples;Min_cycle;Max_cycle;Signal;HPM_P1;HPM_P2
2023/06/19 00:01:50;;;;;;;1.10;1.10;;;;;21.70;95708.00;;;;5034952;28;20208;-55
2023/06/19 00:04:17;;;;;;;1.55;1.45;;;;;21.70;95709.00;;;;5034989;28;20193;-55
2023/06/19 00:06:45;;;;;;;1.10;1.10;;;;;21.60;95704.00;;;;5034759;28;20652;-55
2023/06/19 00:09:13;;;;;;;1.05;1.02;;;;;21.60;95710.00;;;;5034852;28;20217;-53
2023/06/19 00:11:40;;;;;;;1.35;1.25;;;;;21.60;95711.00;;;;5034596;28;20640;-55
2023/06/19 00:14:08;;;;;;;1.40;1.30;;;;;21.60;95708.00;;;;5034346;28;20192;-53
2023/06/19 00:16:37;;;;;;;0.95;0.95;;;;;21.70;95703.00;;;;5034638;28;20561;-54
2023/06/19 00:19:04;;;;;;;2.67;1.83;;;;;21.70;95708.00;;;;5034549;28;20195;-54
2023/06/19 00:21:32;;;;;;;1.73;1.60;;;;;21.70;95711.00;;;;5034170;28;20209;-54
2023/06/19 00:23:59;;;;;;;1.60;1.50;;;;;21.70;95717.00;;;;5034117;28;20189;-54
2023/06/19 00:26:26;;;;;;;1.00;1.00;;;;;21.70;95708.00;;;;5034115;28;20647;-54
2023/06/19 00:28:54;;;;;;;1.45;1.30;;;;;21.70;95700.00;;;;5033995;28;20271;-54
2023/06/19 00:31:21;;;;;;;1.55;1.45;;;;;21.70;95709.00;;;;5034007;28;20265;-54
2023/06/19 00:33:50;;;;;;;1.90;1.80;;;;;21.70;95709.00;;;;5034208;28;20193;-55
2023/06/19 00:36:20;;;;;;;1.58;1.48;;;;;21.70;95700.00;;;;5034212;28;20193;-54
2023/06/19 00:38:47;;;;;;;2.78;1.95;;;;;21.50;95708.00;;;;5034147;28;20240;-53
2023/06/19 00:41:16;;;;;;;1.38;1.27;;;;;21.40;95739.00;;;;5033863;28;20589;-54
2023/06/19 00:43:43;;;;;;;1.88;1.77;;;;;21.10;95768.00;;;;5034121;28;20200;-54
2023/06/19 00:46:11;;;;;;;1.70;1.60;;;;;20.60;95777.00;;;;5033749;28;20197;-54
2023/06/19 00:48:40;;;;;;;1.60;1.50;;;;;20.60;95793.00;;;;5033666;28;20193;-54
2023/06/19 00:51:09;;;;;;;1.67;1.58;;;;;20.50;95792.00;;;;5033572;28;20213;-54
2023/06/19 00:53:37;;;;;;;1.00;1.00;;;;;20.70;95799.00;;;;5032332;28;20679;-54
2023/06/19 00:56:06;;;;;;;1.38;1.27;;;;;21.00;95792.00;;;;5033595;28;20196;-54
2023/06/19 00:58:35;;;;;;;1.33;1.23;;;;;21.40;95791.00;;;;5033566;28;20196;-54
2023/06/19 01:01:02;;;;;;;1.67;1.58;;;;;21.40;95797.00;;;;5033671;28;20587;-54
2023/06/19 01:03:29;;;;;;;1.10;1.10;;;;;21.40;95808.00;;;;5033493;28;20663;-54
2023/06/19 01:06:01;;;;;;;1.98;1.88;;;;;21.30;95810.00;;;;5033626;28;20259;-54
2023/06/19 01:08:44;;;;;;;0.90;0.90;;;;;21.30;95791.00;;;;5033650;28;20184;-55
2023/06/19 01:11:14;;;;;;;1.10;1.10;;;;;21.20;95805.00;;;;5033494;28;20675;-54
2023/06/19 01:13:48;;;;;;;0.80;0.80;;;;;21.10;95798.00;;;;5033348;28;20243;-54
2023/06/19 01:16:16;;;;;;;2.08;1.58;;;;;21.20;95811.00;;;;5033338;28;20185;-54
2023/06/19 01:18:44;;;;;;;1.15;1.15;;;;;21.00;95818.00;;;;5033341;28;20220;-54
2023/06/19 01:21:13;;;;;;;0.70;0.70;;;;;20.90;95816.00;;;;5033324;28;20212;-54
2023/06/19 01:23:42;;;;;;;1.02;1.02;;;;;21.00;95808.00;;;;5031886;28;20272;-54
2023/06/19 01:26:10;;;;;;;0.60;0.60;;;;;21.00;95810.00;;;;5033401;28;20204;-54
2023/06/19 01:28:39;;;;;;;0.68;0.68;;;;;20.90;95815.00;;;;5033091;28;20275;-54
2023/06/19 01:31:12;;;;;;;0.70;0.70;;;;;20.80;95808.00;;;;5032904;28;20224;-54
2023/06/19 01:33:40;;;;;;;0.68;0.68;;;;;20.80;95814.00;;;;5033076;28;20181;-54
2023/06/19 01:36:09;;;;;;;0.38;0.38;;;;;20.80;95806.00;;;;5033030;28;20196;-54
2023/06/19 01:38:37;;;;;;;0.88;0.88;;;;;20.80;95799.00;;;;5032968;28;20204;-54
2023/06/19 01:41:07;;;;;;;1.00;1.00;;;;;20.80;95800.00;;;;5032889;28;20676;-54
2023/06/19 01:43:35;;;;;;;1.55;1.45;;;;;20.80;95800.00;;;;5032945;28;20192;-54
2023/06/19 01:46:03;;;;;;;1.27;0.88;;;;;20.80;95801.00;;;;5032922;28;20189;-54
2023/06/19 01:48:30;;;;;;;0.93;0.93;;;;;20.80;95794.00;;;;5033094;28;20599;-55
2023/06/19 01:50:58;;;;;;;1.33;1.25;;;;;20.80;95801.00;;;;5032979;28;20569;-53
2023/06/19 01:53:25;;;;;;;1.00;1.00;;;;;20.70;95798.00;;;;5032834;28;20204;-54
2023/06/19 01:55:52;;;;;;;1.23;1.02;;;;;20.70;95798.00;;;;5033050;28;20555;-54
2023/06/19 01:58:21;;;;;;;1.20;1.02;;;;;20.80;95793.00;;;;5032875;28;20197;-54
2023/06/19 02:00:49;;;;;;;1.23;1.13;;;;;20.90;95789.00;;;;5033233;28;20196;-54
2023/06/19 02:03:16;;;;;;;0.60;0.60;;;;;20.90;95772.00;;;;5032971;28;20193;-54
2023/06/19 02:05:44;;;;;;;0.80;0.80;;;;;21.00;95775.00;;;;5032736;28;20193;-55
2023/06/19 02:08:11;;;;;;;0.47;0.47;;;;;20.90;95764.00;;;;5032697;28;20193;-55
2023/06/19 02:10:39;;;;;;;0.70;0.70;;;;;21.00;95763.00;;;;5032485;28;20295;-55
2023/06/19 02:13:06;;;;;;;0.90;0.90;;;;;20.90;95763.00;;;;5032877;28;20200;-55
2023/06/19 02:15:35;;;;;;;0.70;0.70;;;;;20.70;95771.00;;;;5032918;28;20559;-55
2023/06/19 02:18:03;;;;;;;0.57;0.57;;;;;20.70;95769.00;;;;5032637;28;20188;-55
2023/06/19 02:20:30;;;;;;;1.08;1.05;;;;;20.80;95773.00;;;;5032608;28;20185;-55
2023/06/19 02:22:58;;;;;;;0.63;0.63;;;;;20.50;95775.00;;;;5035933;28;20200;-54
2023/06/19 02:25:25;;;;;;;0.85;0.85;;;;;20.60;95785.00;;;;5036711;28;20201;-55
2023/06/19 02:27:53;;;;;;;0.80;0.80;;;;;20.60;95784.00;;;;5035103;28;20208;-54
2023/06/19 02:30:20;;;;;;;0.82;0.82;;;;;20.20;95793.00;;;;5036288;28;20220;-55
2023/06/19 02:32:49;;;;;;;0.87;0.87;;;;;20.20;95798.00;;;;5035253;28;20228;-55
2023/06/19 02:35:17;;;;;;;0.88;0.88;;;;;20.30;95786.00;;;;5036249;28;20204;-54
2023/06/19 02:37:46;;;;;;;0.52;0.52;;;;;20.30;95796.00;;;;5036227;28;20323;-54
2023/06/19 02:40:14;;;;;;;0.70;0.70;;;;;20.10;95792.00;;;;5036427;28;20555;-54
2023/06/19 02:42:42;;;;;;;0.80;0.80;;;;;19.90;95798.00;;;;5034649;28;20692;-54
2023/06/19 02:45:10;;;;;;;0.90;0.90;;;;;19.80;95807.00;;;;5035995;28;20665;-55
2023/06/19 02:47:37;;;;;;;0.85;0.85;;;;;19.90;95807.00;;;;5035979;28;20206;-55
2023/06/19 02:50:07;;;;;;;0.70;0.70;;;;;20.00;95815.00;;;;5035916;28;20212;-54
2023/06/19 02:52:35;;;;;;;0.63;0.63;;;;;19.80;95822.00;;;;5036074;28;20224;-55
2023/06/19 02:55:02;;;;;;;0.97;0.97;;;;;19.80;95821.00;;;;5035835;28;20188;-54
2023/06/19 02:57:29;;;;;;;0.80;0.80;;;;;19.80;95820.00;;;;5036107;28;20204;-55
2023/06/19 02:59:57;;;;;;;0.60;0.60;;;;;19.70;95826.00;;;;5035791;28;20203;-55
2023/06/19 03:02:24;;;;;;;1.10;1.00;;;;;19.60;95826.00;;;;5035713;28;20220;-54
2023/06/19 03:04:52;;;;;;;0.50;0.50;;;;;19.60;95820.00;;;;5035937;28;20201;-54
2023/06/19 03:07:21;;;;;;;0.63;0.63;;;;;19.70;95819.00;;;;5034322;28;20196;-54
2023/06/19 03:09:48;;;;;;;0.40;0.40;;;;;19.80;95815.00;;;;5036061;28;20213;-54
2023/06/19 03:12:16;;;;;;;0.53;0.53;;;;;19.70;95818.00;;;;5035460;28;20227;-54
2023/06/19 03:14:43;;;;;;;0.60;0.60;;;;;19.60;95825.00;;;;5035494;28;20197;-54
2023/06/19 03:17:11;;;;;;;0.70;0.70;;;;;19.90;95828.00;;;;5035446;28;20189;-54
2023/06/19 03:19:38;;;;;;;1.07;1.00;;;;;19.70;95825.00;;;;5035377;28;20215;-54
2023/06/19 03:22:06;;;;;;;0.80;0.80;;;;;19.50;95849.00;;;;5035268;28;20220;-54
2023/06/19 03:24:35;;;;;;;0.50;0.50;;;;;19.30;95840.00;;;;5035625;28;20605;-54
2023/06/19 03:27:02;;;;;;;0.40;0.40;;;;;19.20;95841.00;;;;5035304;28;20264;-54
2023/06/19 03:29:29;;;;;;;0.60;0.60;;;;;19.20;95841.00;;;;5035189;28;20193;-57
2023/06/19 03:31:57;;;;;;;1.27;1.00;;;;;18.70;95857.00;;;;5035305;28;20556;-54
2023/06/19 03:34:24;;;;;;;0.60;0.60;;;;;18.40;95841.00;;;;5034105;28;20243;-54
2023/06/19 03:36:52;;;;;;;0.47;0.47;;;;;18.30;95836.00;;;;5035078;28;20197;-54
2023/06/19 03:39:20;;;;;;;0.73;0.73;;;;;18.60;95832.00;;;;5033843;28;20208;-54
2023/06/19 03:41:48;;;;;;;0.70;0.70;;;;;18.70;95838.00;;;;5034951;28;20300;-55
2023/06/19 03:44:16;;;;;;;0.37;0.37;;;;;18.60;95840.00;;;;5035244;28;20197;-54
2023/06/19 03:46:43;;;;;;;1.70;1.57;;;;;18.50;95854.00;;;;5034977;28;20197;-54
2023/06/19 03:49:10;;;;;;;0.60;0.60;;;;;18.50;95849.00;;;;5033610;28;20668;-54
2023/06/19 03:51:38;;;;;;;0.50;0.50;;;;;18.30;95883.00;;;;5034798;28;20228;-54
2023/06/19 03:54:05;;;;;;;0.60;0.60;;;;;18.10;95876.00;;;;5035159;28;20203;-54
2023/06/19 03:56:33;;;;;;;1.10;1.10;;;;;18.00;95864.00;;;;5034763;28;20203;-55
2023/06/19 03:59:02;;;;;;;0.80;0.80;;;;;18.00;95859.00;;;;5035268;28;20189;-54
2023/06/19 04:01:29;;;;;;;0.70;0.70;;;;;18.20;95868.00;;;;5033417;28;20236;-57
2023/06/19 04:03:57;;;;;;;0.60;0.60;;;;;18.30;95861.00;;;;5034879;28;20554;-55
2023/06/19 04:06:24;;;;;;;0.50;0.50;;;;;18.50;95869.00;;;;5035154;28;20193;-55
2023/06/19 04:08:52;;;;;;;0.50;0.50;;;;;18.50;95866.00;;;;5034783;28;20319;-55
2023/06/19 04:11:20;;;;;;;0.50;0.50;;;;;18.70;95862.00;;;;5034357;28;20231;-55
2023/06/19 04:13:47;;;;;;;0.47;0.47;;;;;18.50;95864.00;;;;5034425;28;20293;-55
2023/06/19 04:16:16;;;;;;;0.60;0.60;;;;;18.60;95861.00;;;;5034446;28;20189;-55
2023/06/19 04:18:44;;;;;;;0.60;0.60;;;;;18.60;95854.00;;;;5034356;28;20204;-55
2023/06/19 04:21:11;;;;;;;0.77;0.77;;;;;18.60;95865.00;;;;5034213;28;20213;-55
2023/06/19 04:23:39;;;;;;;1.30;1.20;;;;;18.70;95849.00;;;;5034290;28;20559;-55
2023/06/19 04:26:06;;;;;;;0.57;0.57;;;;;18.50;95854.00;;;;5034208;28;20284;-55
2023/06/19 04:28:33;;;;;;;0.67;0.67;;;;;18.50;95846.00;;;;5032869;28;20197;-55
2023/06/19 04:31:01;;;;;;;0.87;0.87;;;;;18.50;95852.00;;;;5034200;28;20247;-55
2023/06/19 04:33:30;;;;;;;0.90;0.90;;;;;18.50;95845.00;;;;5034080;28;20192;-55
2023/06/19 04:35:57;;;;;;;0.70;0.70;;;;;18.40;95851.00;;;;5033995;28;20189;-55
2023/06/19 04:38:25;;;;;;;0.70;0.70;;;;;18.20;95845.00;;;;5034014;28;20192;-55
2023/06/19 04:40:53;;;;;;;0.50;0.50;;;;;18.10;95845.00;;;;5034113;28;20213;-54
2023/06/19 04:43:20;;;;;;;0.77;0.77;;;;;18.20;95826.00;;;;5033898;28;20181;-54
2023/06/19 04:45:48;;;;;;;0.60;0.60;;;;;18.30;95835.00;;;;5033277;28;20251;-54
2023/06/19 04:48:15;;;;;;;1.53;1.43;;;;;18.50;95836.00;;;;5032412;28;20196;-54
2023/06/19 04:50:44;;;;;;;0.40;0.40;;;;;18.70;95839.00;;;;5033578;28;20212;-54
2023/06/19 04:53:11;;;;;;;0.63;0.63;;;;;18.70;95834.00;;;;5033669;28;20193;-55
2023/06/19 04:55:39;;;;;;;1.10;1.07;;;;;18.60;95836.00;;;;5034116;28;20246;-55
2023/06/19 04:58:06;;;;;;;1.23;1.13;;;;;18.70;95839.00;;;;5033565;28;20212;-55
2023/06/19 05:00:34;;;;;;;0.67;0.67;;;;;18.80;95839.00;;;;5032236;28;20238;-55
2023/06/19 05:03:01;;;;;;;0.50;0.50;;;;;18.90;95839.00;;;;5033466;28;20203;-55
2023/06/19 05:05:29;;;;;;;1.00;1.00;;;;;19.00;95841.00;;;;5033447;28;20223;-55
2023/06/19 05:07:58;;;;;;;1.00;1.00;;;;;18.90;95842.00;;;;5033338;28;20247;-55
2023/06/19 05:10:25;;;;;;;0.70;0.70;;;;;19.00;95841.00;;;;5033211;28;20213;-55
2023/06/19 05:12:53;;;;;;;2.10;1.10;;;;;19.10;95841.00;;;;5033038;28;20694;-55
2023/06/19 05:15:20;;;;;;;0.73;0.73;;;;;19.10;95842.00;;;;5033124;28;20197;-55
2023/06/19 05:17:48;;;;;;;1.60;0.80;;;;;19.20;95844.00;;;;5033176;28;20193;-55
2023/06/19 05:20:15;;;;;;;0.90;0.90;;;;;19.30;95840.00;;;;5033144;28;20201;-55
2023/06/19 05:22:43;;;;;;;1.90;1.00;;;;;19.30;95843.00;;;;5033253;28;20224;-55
2023/06/19 05:25:12;;;;;;;0.93;0.93;;;;;19.50;95845.00;;;;5033093;28;20199;-55
2023/06/19 05:27:39;;;;;;;1.00;1.00;;;;;19.50;95850.00;;;;5033247;28;20196;-55
2023/06/19 05:30:08;;;;;;;0.70;0.70;;;;;19.60;95837.00;;;;5032904;28;20273;-55
2023/06/19 05:32:35;;;;;;;0.60;0.60;;;;;19.50;95840.00;;;;5031516;28;20594;-55
2023/06/19 05:35:03;;;;;;;0.60;0.60;;;;;19.50;95846.00;;;;5031660;28;20188;-55
2023/06/19 05:37:30;;;;;;;0.40;0.40;;;;;19.50;95845.00;;;;5033206;28;20252;-55
2023/06/19 05:39:58;;;;;;;1.20;0.80;;;;;19.60;95842.00;;;;5032769;28;20196;-55
2023/06/19 05:42:26;;;;;;;0.90;0.90;;;;;19.60;95841.00;;;;5032735;28;20216;-55
2023/06/19 05:44:54;;;;;;;0.80;0.80;;;;;19.60;95837.00;;;;5033013;28;20188;-55
2023/06/19 05:47:25;;;;;;;0.60;0.60;;;;;19.70;95844.00;;;;5032670;28;20201;-55
2023/06/19 05:49:53;;;;;;;0.47;0.47;;;;;19.70;95846.00;;;;5032838;28;20181;-56
2023/06/19 05:52:21;;;;;;;0.80;0.80;;;;;19.60;95840.00;;;;5032519;28;20231;-56
2023/06/19 05:54:48;;;;;;;0.67;0.67;;;;;19.60;95845.00;;;;5031451;28;20250;-55
2023/06/19 05:57:16;;;;;;;3.70;0.90;;;;;19.70;95846.00;;;;5034776;28;20207;-55
2023/06/19 05:59:44;;;;;;;1.27;1.23;;;;;19.80;95845.00;;;;5034811;28;20189;-55
2023/06/19 06:02:12;;;;;;;0.57;0.57;;;;;19.90;95849.00;;;;5036122;28;20219;-58
2023/06/19 06:04:39;;;;;;;1.20;1.10;;;;;19.90;95840.00;;;;5054032;28;20671;-55
2023/06/19 06:07:07;;;;;;;0.97;0.90;;;;;20.20;95851.00;;;;5054972;28;20200;-56
2023/06/19 06:09:35;;;;;;;0.60;0.60;;;;;20.20;95854.00;;;;5054402;28;20192;-55
2023/06/19 06:12:03;;;;;;;0.87;0.87;;;;;20.40;95860.00;;;;5052471;28;20655;-55
2023/06/19 06:14:30;;;;;;;0.90;0.90;;;;;20.20;95860.00;;;;5052058;28;20560;-55
2023/06/19 06:16:59;;;;;;;0.60;0.60;;;;;20.30;95868.00;;;;5041657;28;20656;-55
2023/06/19 06:19:26;;;;;;;1.30;1.30;;;;;20.30;95876.00;;;;5031683;28;20235;-55
2023/06/19 06:21:54;;;;;;;1.33;1.33;;;;;20.30;95880.00;;;;5034224;28;20247;-55
2023/06/19 06:24:22;;;;;;;0.70;0.70;;;;;20.30;95875.00;;;;5033932;28;20200;-55
2023/06/19 06:26:49;;;;;;;0.60;0.60;;;;;20.40;95874.00;;;;5034546;28;20209;-55
2023/06/19 06:29:17;;;;;;;0.47;0.47;;;;;20.50;95881.00;;;;5034508;28;20204;-55
2023/06/19 06:31:48;;;;;;;1.00;1.00;;;;;20.40;95876.00;;;;5034118;28;20723;-55
2023/06/19 06:34:16;;;;;;;0.97;0.97;;;;;20.60;95873.00;;;;5034319;28;20193;-55
2023/06/19 06:36:44;;;;;;;1.27;1.17;;;;;20.60;95876.00;;;;5034049;28;20196;-59
2023/06/19 06:39:11;;;;;;;0.80;0.80;;;;;20.60;95874.00;;;;5034074;28;20207;-55
2023/06/19 06:41:39;;;;;;;0.95;0.95;;;;;20.60;95884.00;;;;5036454;28;20227;-54
2023/06/19 06:44:07;;;;;;;0.68;0.68;;;;;20.60;95880.00;;;;5053840;28;20203;-55
2023/06/19 06:46:34;;;;;;;0.90;0.90;;;;;20.80;95889.00;;;;5053607;28;20196;-55
2023/06/19 06:49:02;;;;;;;0.70;0.70;;;;;20.80;95881.00;;;;5051247;28;20234;-55
2023/06/19 06:51:30;;;;;;;0.73;0.73;;;;;21.10;95897.00;;;;5052511;28;20219;-55
2023/06/19 06:53:58;;;;;;;1.67;1.57;;;;;21.20;95896.00;;;;5053597;28;20207;-55
2023/06/19 06:56:25;;;;;;;1.20;1.17;;;;;21.20;95905.00;;;;5052311;28;20208;-55
2023/06/19 06:58:53;;;;;;;0.80;0.80;;;;;21.30;95909.00;;;;5053536;28;20196;-55
2023/06/19 07:01:20;;;;;;;0.90;0.90;;;;;21.40;95908.00;;;;5053589;28;20566;-55
2023/06/19 07:03:47;;;;;;;0.98;0.95;;;;;21.60;95911.00;;;;5051933;28;21613;-55
2023/06/19 07:06:15;;;;;;;0.80;0.80;;;;;21.30;95908.00;;;;5053403;28;20206;-55
2023/06/19 07:08:47;;;;;;;0.57;0.57;;;;;21.30;95921.00;;;;5053328;28;20199;-55
2023/06/19 07:11:15;;;;;;;0.70;0.70;;;;;21.40;95923.00;;;;5033355;28;20238;-55
2023/06/19 07:13:42;;;;;;;0.90;0.90;;;;;21.20;95930.00;;;;5034022;28;20193;-55
2023/06/19 07:16:10;;;;;;;0.80;0.80;;;;;21.00;95924.00;;;;5028985;28;20208;-55
2023/06/19 07:18:38;;;;;;;1.00;1.00;;;;;21.20;95927.00;;;;5030817;28;20196;-55
2023/06/19 07:21:13;;;;;;;0.90;0.90;;;;;21.30;95927.00;;;;5026300;28;20302;-55
2023/06/19 07:23:43;;;;;;;1.10;1.10;;;;;21.40;95925.00;;;;5033111;28;20239;-55
2023/06/19 07:26:11;;;;;;;0.73;0.73;;;;;21.50;95943.00;;;;5039980;28;20222;-55
2023/06/19 07:28:38;;;;;;;0.70;0.70;;;;;21.70;95936.00;;;;5049578;28;20562;-55
2023/06/19 07:31:06;;;;;;;0.85;0.85;;;;;21.80;95932.00;;;;5052136;28;20224;-56
2023/06/19 07:33:33;;;;;;;0.52;0.52;;;;;21.90;95931.00;;;;5052439;28;20196;-55
2023/06/19 07:36:02;;;;;;;0.88;0.88;;;;;22.10;95945.00;;;;5052713;28;20223;-55
2023/06/19 07:38:29;;;;;;;0.70;0.70;;;;;21.90;95938.00;;;;5053111;28;20208;-55
2023/06/19 07:40:58;;;;;;;0.50;0.50;;;;;22.10;95935.00;;;;5052409;28;20243;-55
2023/06/19 07:43:26;;;;;;;0.63;0.63;;;;;22.50;95933.00;;;;5052732;28;20188;-55
2023/06/19 07:45:53;;;;;;;0.60;0.60;;;;;22.70;95938.00;;;;5051557;28;20283;-55
2023/06/19 07:48:20;;;;;;;1.15;1.08;;;;;22.60;95937.00;;;;5051296;28;20207;-55
2023/06/19 07:50:48;;;;;;;0.57;0.57;;;;;22.70;95931.00;;;;5051994;28;20663;-55
2023/06/19 07:53:16;;;;;;;1.02;1.02;;;;;22.80;95929.00;;;;5051323;28;20215;-55
2023/06/19 07:55:43;;;;;;;0.50;0.50;;;;;23.20;95929.00;;;;5051536;28;20219;-55
2023/06/19 07:58:12;;;;;;;0.60;0.60;;;;;23.00;95937.00;;;;5052419;28;20196;-55
2023/06/19 08:00:39;;;;;;;0.52;0.52;;;;;23.00;95935.00;;;;5051069;28;20203;-55
2023/06/19 08:03:07;;;;;;;0.63;0.63;;;;;23.20;95923.00;;;;5052275;28;20200;-55
2023/06/19 08:05:34;;;;;;;0.77;0.77;;;;;23.40;95925.00;;;;5052303;28;20209;-55
2023/06/19 08:08:02;;;;;;;0.65;0.65;;;;;23.70;95930.00;;;;5052341;28;20263;-55
2023/06/19 08:10:30;;;;;;;0.68;0.68;;;;;23.70;95927.00;;;;5052443;28;20199;-55
2023/06/19 08:12:57;;;;;;;1.30;1.27;;;;;23.80;95929.00;;;;5052097;28;20299;-55
2023/06/19 08:15:26;;;;;;;1.17;1.17;;;;;23.90;95919.00;;;;5052038;28;20208;-55
2023/06/19 08:17:54;;;;;;;0.85;0.85;;;;;24.30;95919.00;;;;5052044;28;20261;-56
2023/06/19 08:20:21;;;;;;;0.55;0.55;;;;;24.50;95915.00;;;;5051084;28;20525;-56
2023/06/19 08:22:49;;;;;;;0.80;0.80;;;;;24.70;95918.00;;;;5052267;28;21135;-55
2023/06/19 08:25:16;;;;;;;0.65;0.65;;;;;24.50;95906.00;;;;5051537;28;20200;-55
2023/06/19 08:27:45;;;;;;;0.50;0.50;;;;;24.80;95912.00;;;;5052290;28;20796;-55
2023/06/19 08:30:12;;;;;;;0.25;0.25;;;;;24.20;95903.00;;;;5051752;28;20200;-55
2023/06/19 08:32:41;;;;;;;0.73;0.73;;;;;24.20;95903.00;;;;5051652;28;20222;-55
2023/06/19 08:35:09;;;;;;;0.50;0.50;;;;;24.60;95907.00;;;;5051493;28;20623;-55
2023/06/19 08:37:36;;;;;;;0.80;0.80;;;;;24.40;95908.00;;;;5051766;28;20203;-55
2023/06/19 08:40:09;;;;;;;0.40;0.40;;;;;24.30;95896.00;;;;5051631;28;20192;-55
2023/06/19 08:42:36;;;;;;;0.55;0.55;;;;;24.70;95883.00;;;;5051521;28;20235;-55
2023/06/19 08:45:04;;;;;;;0.65;0.65;;;;;24.90;95901.00;;;;5051523;28;20195;-55
2023/06/19 08:47:33;;;;;;;0.70;0.70;;;;;25.30;95897.00;;;;5051559;28;20195;-55
2023/06/19 08:50:03;;;;;;;0.95;0.95;;;;;24.90;95894.00;;;;5051520;28;20675;-55
2023/06/19 08:52:30;;;;;;;0.88;0.88;;;;;25.10;95891.00;;;;5051298;28;20255;-56
2023/06/19 08:54:58;;;;;;;0.60;0.60;;;;;25.20;95892.00;;;;5051867;28;20552;-55
2023/06/19 08:57:35;;;;;;;1.30;0.60;;;;;25.00;95894.00;;;;5051734;28;20196;-55
2023/06/19 09:00:05;;;;;;;0.52;0.52;;;;;25.20;95894.00;;;;5044382;28;20193;-55
2023/06/19 09:02:40;;;;;;;0.90;0.90;;;;;25.20;95886.00;;;;5051616;28;20691;-55
2023/06/19 09:05:17;;;;;;;0.75;0.63;;;;;25.60;95890.00;;;;5050762;28;20220;-55
2023/06/19 09:07:44;;;;;;;0.88;0.88;;;;;25.30;95898.00;;;;5051882;28;20191;-55
2023/06/19 09:10:17;;;;;;;0.50;0.50;;;;;25.70;95899.00;;;;5051175;28;20203;-55
2023/06/19 09:12:45;;;;;;;0.52;0.52;;;;;26.10;95892.00;;;;5051193;28;20224;-56
2023/06/19 09:15:14;;;;;;;0.70;0.70;;;;;26.40;95888.00;;;;5051458;28;20195;-56
2023/06/19 09:17:44;;;;;;;0.85;0.85;;;;;26.40;95896.00;;;;5027228;28;20197;-56
2023/06/19 09:20:12;;;;;;;0.93;0.93;;;;;26.40;95891.00;;;;5031160;28;20251;-55
2023/06/19 09:22:41;;;;;;;0.70;0.70;;;;;26.70;95880.00;;;;5030987;28;20316;-55
2023/06/19 09:25:10;;;;;;;0.60;0.60;;;;;27.00;95883.00;;;;5030988;28;20262;-55
2023/06/19 09:27:38;;;;;;;0.80;0.80;;;;;27.30;95893.00;;;;5031138;28;20608;-55
2023/06/19 09:30:07;;;;;;;0.60;0.60;;;;;27.60;95894.00;;;;5030888;28;20200;-55
2023/06/19 09:32:36;;;;;;;0.60;0.60;;;;;27.40;95897.00;;;;5030891;28;20235;-55
2023/06/19 09:35:04;;;;;;;0.60;0.60;;;;;27.40;95902.00;;;;5031463;28;20611;-55
2023/06/19 09:37:31;;;;;;;1.05;1.05;;;;;27.00;95899.00;;;;5030564;28;20270;-56
2023/06/19 09:40:09;;;;;;;0.70;0.70;;;;;26.60;95894.00;;;;5031382;28;20200;-55
2023/06/19 09:42:38;;;;;;;1.35;1.20;;;;;26.50;95902.00;;;;5030068;28;20228;-55
2023/06/19 09:45:07;;;;;;;0.47;0.47;;;;;26.30;95896.00;;;;5030263;28;20204;-55
2023/06/19 09:47:38;;;;;;;0.77;0.77;;;;;26.10;95893.00;;;;5029968;28;20258;-55
2023/06/19 09:50:07;;;;;;;0.80;0.80;;;;;26.30;95891.00;;;;5029488;28;20625;-55
2023/06/19 09:52:35;;;;;;;1.00;0.85;;;;;26.60;95895.00;;;;5028358;28;20228;-55
2023/06/19 09:55:06;;;;;;;1.58;1.50;;;;;26.90;95889.00;;;;5028448;28;20742;-55
2023/06/19 09:57:34;;;;;;;0.85;0.85;;;;;27.20;95886.00;;;;5029496;28;20636;-56
2023/06/19 10:00:13;;;;;;;1.00;0.80;;;;;27.40;95893.00;;;;5030236;28;20695;-55
2023/06/19 10:02:42;;;;;;;0.73;0.73;;;;;27.60;95900.00;;;;5029466;28;20304;-55
2023/06/19 10:05:12;;;;;;;0.80;0.80;;;;;27.60;95897.00;;;;5030008;28;20660;-56
2023/06/19 10:07:42;;;;;;;0.75;0.75;;;;;27.90;95882.00;;;;5029361;28;20679;-56
2023/06/19 10:10:22;;;;;;;0.77;0.77;;;;;28.10;95886.00;;;;5029747;28;20280;-55
2023/06/19 10:12:50;;;;;;;1.00;1.00;;;;;28.30;95883.00;;;;5029421;28;20220;-56
2023/06/19 10:15:19;;;;;;;0.63;0.63;;;;;28.40;95887.00;;;;5029733;28;20200;-56
2023/06/19 10:17:49;;;;;;;1.90;1.02;;;;;28.70;95890.00;;;;5023962;28;20664;-56
2023/06/19 10:20:25;;;;;;;0.47;0.47;;;;;28.50;95894.00;;;;5025382;28;20276;-55
2023/06/19 10:22:53;;;;;;;0.95;0.95;;;;;28.40;95895.00;;;;5030832;28;20220;-55
2023/06/19 10:25:23;;;;;;;0.82;0.82;;;;;28.30;95897.00;;;;5030788;28;20668;-55
2023/06/19 10:27:52;;;;;;;0.73;0.73;;;;;28.50;95883.00;;;;5026275;28;20201;-55
2023/06/19 10:30:20;;;;;;;0.90;0.90;;;;;28.40;95886.00;;;;5030728;28;20220;-56
2023/06/19 10:32:48;;;;;;;1.02;1.02;;;;;28.00;95892.00;;;;5029210;28;20221;-55
2023/06/19 10:35:17;;;;;;;1.30;1.20;;;;;28.00;95869.00;;;;5030777;28;20193;-55
2023/06/19 10:37:45;;;;;;;3.67;1.05;;;;;27.70;95878.00;;;;5030626;28;20695;-55
2023/06/19 10:40:13;;;;;;;0.85;0.85;;;;;28.20;95868.00;;;;5030271;28;20655;-55
2023/06/19 10:42:43;;;;;;;0.85;0.85;;;;;28.40;95867.00;;;;4995738;28;1053966;-55
2023/06/19 10:45:13;;;;;;;0.95;0.95;;;;;29.10;95867.00;;;;5034980;28;20197;-55
2023/06/19 10:47:41;;;;;;;0.73;0.73;;;;;29.40;95856.00;;;;5035253;28;20204;-55
2023/06/19 10:50:12;;;;;;;0.90;0.90;;;;;29.80;95860.00;;;;5034778;28;20228;-56
2023/06/19 10:52:44;;;;;;;1.58;1.20;;;;;29.90;95869.00;;;;5035230;28;20227;-55
2023/06/19 10:55:13;;;;;;;1.00;1.00;;;;;29.50;95867.00;;;;5034852;28;20204;-56
2023/06/19 10:57:45;;;;;;;0.77;0.77;;;;;29.40;95862.00;;;;5034966;28;20196;-56
2023/06/19 11:00:23;;;;;;;1.15;1.08;;;;;29.40;95872.00;;;;5035071;28;20189;-55
2023/06/19 11:02:50;;;;;;;0.80;0.80;;;;;29.20;95875.00;;;;5034893;28;20232;-56
2023/06/19 11:05:22;;;;;;;1.08;1.05;;;;;28.90;95871.00;;;;5034653;28;20204;-56
2023/06/19 11:07:53;;;;;;;0.70;0.70;;;;;27.80;95874.00;;;;5034943;28;20189;-55
2023/06/19 11:10:22;;;;;;;0.93;0.93;;;;;27.90;95876.00;;;;5034382;28;20189;-55
2023/06/19 11:12:54;;;;;;;1.25;1.13;;;;;27.60;95875.00;;;;5034793;28;20606;-57
2023/06/19 11:15:28;;;;;;;0.80;0.80;;;;;27.40;95877.00;;;;5034616;28;20210;-55
2023/06/19 11:17:56;;;;;;;0.90;0.90;;;;;27.60;95871.00;;;;5031006;28;20247;-55
2023/06/19 11:20:24;;;;;;;1.48;1.38;;;;;27.90;95869.00;;;;5034339;28;20229;-55
2023/06/19 11:22:56;;;;;;;0.65;0.65;;;;;28.00;95870.00;;;;5034471;28;20235;-55
2023/06/19 11:25:24;;;;;;;0.90;0.90;;;;;28.30;95860.00;;;;5034664;28;20196;-55
2023/06/19 11:27:54;;;;;;;1.73;1.13;;;;;28.50;95862.00;;;;5034194;28;20192;-55
2023/06/19 11:30:32;;;;;;;0.90;0.90;;;;;28.90;95869.00;;;;5034434;28;20230;-55
2023/06/19 11:33:01;;;;;;;1.10;1.10;;;;;28.60;95873.00;;;;5034392;28;20232;-54
2023/06/19 11:35:36;;;;;;;0.80;0.80;;;;;28.70;95876.00;;;;5032891;28;20250;-55
2023/06/19 11:38:03;;;;;;;0.93;0.93;;;;;28.40;95872.00;;;;5029821;28;20193;-55
2023/06/19 11:40:40;;;;;;;1.27;1.27;;;;;28.60;95861.00;;;;5034136;28;20223;-55
2023/06/19 11:43:09;;;;;;;0.73;0.73;;;;;29.40;95834.00;;;;5033956;28;20341;-55
2023/06/19 11:45:47;;;;;;;0.60;0.60;;;;;29.70;95843.00;;;;5032618;28;20668;-54
2023/06/19 11:48:15;;;;;;;0.70;0.70;;;;;30.20;95842.00;;;;5033940;28;20189;-55
2023/06/19 11:50:42;;;;;;;0.95;0.95;;;;;30.20;95835.00;;;;5034108;28;20231;-55
2023/06/19 11:53:10;;;;;;;1.02;1.02;;;;;30.40;95841.00;;;;5033713;28;20221;-55
2023/06/19 11:55:37;;;;;;;0.70;0.70;;;;;30.40;95835.00;;;;5032973;28;20202;-55
2023/06/19 11:58:05;;;;;;;0.60;0.60;;;;;30.70;95834.00;;;;5033798;28;20201;-55
2023/06/19 12:00:34;;;;;;;1.20;1.20;;;;;30.90;95826.00;;;;5033926;28;20723;-55
2023/06/19 12:03:01;;;;;;;1.65;1.58;;;;;31.00;95855.00;;;;5033704;28;20243;-55
2023/06/19 12:05:29;;;;;;;0.73;0.73;;;;;30.90;95825.00;;;;5033871;28;20283;-55
2023/06/19 12:07:57;;;;;;;1.00;1.00;;;;;30.80;95829.00;;;;5033296;28;20220;-54
2023/06/19 12:10:25;;;;;;;1.55;1.45;;;;;30.40;95850.00;;;;5033810;28;20188;-54
2023/06/19 12:12:53;;;;;;;1.02;0.90;;;;;30.10;95849.00;;;;5033215;28;20228;-55
2023/06/19 12:15:20;;;;;;;1.25;1.25;;;;;29.90;95851.00;;;;5033672;28;20200;-55
2023/06/19 12:17:49;;;;;;;0.75;0.75;;;;;30.00;95849.00;;;;5033159;28;20299;-55
2023/06/19 12:20:17;;;;;;;0.73;0.73;;;;;29.70;95846.00;;;;5033586;28;20288;-54
2023/06/19 12:22:45;;;;;;;0.73;0.73;;;;;29.90;95854.00;;;;5033329;28;20213;-54
2023/06/19 12:25:12;;;;;;;0.85;0.85;;;;;30.00;95849.00;;;;5033367;28;20205;-55